Time;durP1;ratioP1;P1;durP2;ratioP2;P2;SDS_P1;SDS_P2;PMS_P1;PMS_P2;Temp;Humidity;BMP_temperature;BMP_pressure;BME280_temperature;BME280_humidity;BME280_pressure;Samples;Min_cycle;Max_cycle;Signal;HPM_P1;HPM_P2
2024/01/03 00:00:08;;;;;;;11.10;5.13;;;5.70;99.90;;;3.68;100.00;98802.78;10281451;28;96873;-83
2024/01/03 00:05:12;;;;;;;8.70;4.60;;;5.70;99.90;;;3.68;100.00;98806.22;10237330;28;97100;-83
2024/01/03 00:10:41;;;;;;;9.73;4.80;;;5.70;99.90;;;3.72;100.00;98804.13;10252794;28;96609;-83
2024/01/03 00:16:00;;;;;;;12.80;4.70;;;5.70;99.90;;;3.78;100.00;98808.75;10265612;28;96638;-83
2024/01/03 00:21:07;;;;;;;11.83;5.47;;;5.80;99.90;;;3.81;100.00;98791.81;10237292;28;96703;-83
2024/01/03 00:26:12;;;;;;;11.53;5.47;;;5.80;99.90;;;3.84;100.00;98809.88;10256407;28;96542;-83
2024/01/03 00:31:43;;;;;;;10.50;4.67;;;5.80;99.90;;;3.85;100.00;98836.03;10278832;28;96591;-83
2024/01/03 00:36:56;;;;;;;8.97;4.67;;;5.80;99.90;;;3.84;100.00;98849.31;10283366;28;96728;-83
2024/01/03 00:42:00;;;;;;;9.80;4.70;;;5.80;99.90;;;3.83;100.00;98851.09;10239859;28;97381;-83
2024/01/03 00:47:04;;;;;;;9.33;5.17;;;5.80;99.90;;;3.84;100.00;98841.41;10240711;28;97408;-83
2024/01/03 00:52:08;;;;;;;9.97;5.17;;;5.80;99.90;;;3.82;100.00;98828.44;10280326;28;98273;-83
2024/01/03 00:57:13;;;;;;;8.63;4.23;;;5.80;99.90;;;3.87;100.00;98830.59;10275947;28;97904;-83
2024/01/03 01:02:16;;;;;;;9.13;5.00;;;5.80;99.90;;;3.90;100.00;98804.84;10278995;28;96861;-83
2024/01/03 01:07:20;;;;;;;13.70;5.37;;;5.90;99.90;;;3.98;100.00;98827.69;10278726;28;97593;-83
2024/01/03 01:12:23;;;;;;;11.33;4.60;;;5.90;99.90;;;3.97;100.00;98821.63;10275496;28;98142;-83
2024/01/03 01:17:27;;;;;;;8.90;5.00;;;5.90;99.90;;;3.96;100.00;98832.31;10245656;28;98728;-83
2024/01/03 01:22:30;;;;;;;9.43;4.87;;;6.00;99.90;;;3.93;100.00;98825.53;10258537;28;96714;-84
2024/01/03 01:27:34;;;;;;;9.70;4.27;;;5.90;99.90;;;3.91;100.00;98816.19;10245615;28;98501;-84
2024/01/03 01:32:38;;;;;;;9.67;4.83;;;5.90;99.90;;;3.87;100.00;98807.78;10281383;28;96556;-84
2024/01/03 01:37:41;;;;;;;14.27;5.13;;;5.90;99.90;;;3.82;100.00;98801.34;10234193;28;96687;-84
2024/01/03 01:42:45;;;;;;;8.20;4.43;;;5.80;99.90;;;3.75;100.00;98796.72;10277703;28;97079;-84
2024/01/03 01:47:49;;;;;;;11.03;4.77;;;5.80;99.90;;;3.68;100.00;98790.47;10247600;28;96596;-84
2024/01/03 01:52:53;;;;;;;9.87;5.20;;;5.70;99.90;;;3.69;100.00;98796.53;10245559;28;97760;-83
2024/01/03 01:57:57;;;;;;;10.90;5.00;;;5.70;99.90;;;3.69;100.00;98786.03;10243668;28;96634;-84
2024/01/03 02:03:01;;;;;;;13.37;6.60;;;5.70;99.90;;;3.71;100.00;98769.13;10249096;28;97175;-84
2024/01/03 02:08:11;;;;;;;11.53;6.43;;;5.70;99.90;;;3.77;100.00;98746.63;10280446;28;97348;-84
2024/01/03 02:13:15;;;;;;;10.93;5.27;;;5.70;99.90;;;3.81;100.00;98766.38;10280362;28;97541;-84
2024/01/03 02:18:19;;;;;;;11.17;5.10;;;5.70;99.90;;;3.84;100.00;98750.31;10253680;28;96730;-84
2024/01/03 02:23:23;;;;;;;14.27;5.50;;;5.80;99.90;;;3.83;100.00;98761.75;10282894;28;98184;-84
2024/01/03 02:28:27;;;;;;;9.63;5.30;;;5.80;99.90;;;3.82;100.00;98762.75;10254170;28;97569;-84
2024/01/03 02:33:30;;;;;;;11.53;5.07;;;5.80;99.90;;;3.79;100.00;98713.16;10250822;28;96890;-84
2024/01/03 02:38:34;;;;;;;20.07;9.27;;;5.80;99.90;;;3.79;100.00;98731.56;10251326;28;98611;-84
2024/01/03 02:43:38;;;;;;;16.70;8.83;;;5.80;99.90;;;3.77;100.00;98694.09;10243114;28;96996;-84
2024/01/03 02:48:41;;;;;;;15.20;7.83;;;5.80;99.90;;;3.73;100.00;98677.84;10249342;28;98572;-84
2024/01/03 02:53:46;;;;;;;18.47;7.47;;;5.80;99.90;;;3.72;100.00;98670.13;10251347;28;97356;-84
2024/01/03 02:58:49;;;;;;;10.93;4.97;;;5.70;99.90;;;3.70;100.00;98711.47;10278532;28;96779;-84
2024/01/03 03:03:52;;;;;;;13.57;4.70;;;5.70;99.90;;;3.72;100.00;98725.31;10249730;28;97301;-83
2024/01/03 03:08:56;;;;;;;10.43;4.33;;;5.70;99.90;;;3.74;100.00;98736.47;10250950;28;96685;-84
2024/01/03 03:14:18;;;;;;;;;;;5.70;99.90;;;3.78;100.00;98731.69;10250719;28;97141;-84
2024/01/03 03:19:21;;;;;;;9.57;3.93;;;5.70;99.90;;;3.78;100.00;98718.56;10249352;28;98473;-84
2024/01/03 03:24:25;;;;;;;12.67;4.50;;;5.80;99.90;;;3.89;100.00;98707.75;10281363;28;96634;-85
2024/01/03 03:29:28;;;;;;;9.70;4.50;;;5.80;99.90;;;3.91;100.00;98704.00;10267581;28;96877;-83
2024/01/03 03:34:32;;;;;;;6.87;3.17;;;5.90;99.90;;;3.94;100.00;98700.19;10246422;28;97646;-84
2024/01/03 03:39:35;;;;;;;6.93;3.40;;;5.90;99.90;;;3.99;100.00;98711.06;10249654;28;96687;-84
2024/01/03 03:44:40;;;;;;;7.47;3.77;;;6.00;99.90;;;4.00;100.00;98710.88;10272156;28;96696;-83
2024/01/03 03:49:44;;;;;;;10.43;4.60;;;6.00;99.90;;;4.02;100.00;98716.81;10249183;28;96608;-84
2024/01/03 03:54:47;;;;;;;10.37;5.03;;;6.00;99.90;;;4.09;100.00;98719.63;10249094;28;98745;-84
2024/01/03 03:59:51;;;;;;;10.70;4.47;;;6.10;99.90;;;4.07;100.00;98726.00;10248742;28;98571;-84
2024/01/03 04:04:54;;;;;;;10.47;4.77;;;6.10;99.90;;;4.08;100.00;98735.53;10248078;28;98321;-84
2024/01/03 04:09:58;;;;;;;5.60;3.00;;;6.10;99.90;;;4.09;100.00;98739.84;10264740;28;98393;-84
2024/01/03 04:15:01;;;;;;;6.33;2.80;;;6.10;99.90;;;4.15;100.00;98740.00;10245193;28;96643;-84
2024/01/03 04:20:05;;;;;;;5.77;2.60;;;6.10;99.90;;;4.26;100.00;98749.41;10248919;28;96646;-85
2024/01/03 04:25:10;;;;;;;4.73;2.33;;;6.20;99.90;;;4.32;100.00;98738.22;10243294;28;97461;-85
2024/01/03 04:30:13;;;;;;;6.23;2.67;;;6.20;99.90;;;4.35;100.00;98719.47;10245942;28;96587;-84
2024/01/03 04:35:17;;;;;;;4.90;2.67;;;6.30;99.90;;;4.35;100.00;98719.47;10263165;28;96721;-84
2024/01/03 04:40:20;;;;;;;7.63;3.67;;;6.30;99.90;;;4.35;100.00;98708.94;10246445;28;96608;-85
2024/01/03 04:45:24;;;;;;;6.93;3.90;;;6.30;99.90;;;4.36;100.00;98710.59;10245984;28;98114;-84
2024/01/03 04:50:27;;;;;;;10.20;4.37;;;6.30;99.90;;;4.37;100.00;98706.16;10266595;28;96782;-85
2024/01/03 04:55:31;;;;;;;9.43;4.07;;;6.30;99.90;;;4.34;100.00;98709.13;10255212;28;98597;-84
2024/01/03 05:00:36;;;;;;;14.53;5.70;;;6.30;99.90;;;4.34;100.00;98704.69;10247834;28;98753;-84
2024/01/03 05:05:40;;;;;;;17.80;5.57;;;6.30;99.90;;;4.34;100.00;98695.97;10264209;28;98138;-84
2024/01/03 05:10:43;;;;;;;14.47;6.53;;;6.30;99.90;;;4.34;100.00;98693.34;10247982;28;96635;-84
2024/01/03 05:15:47;;;;;;;16.17;8.23;;;6.30;99.90;;;4.34;100.00;98701.22;10271165;28;96720;-85
2024/01/03 05:20:50;;;;;;;21.33;9.77;;;6.30;99.90;;;4.32;100.00;98711.94;10249109;28;97513;-84
2024/01/03 05:25:53;;;;;;;48.57;19.20;;;6.30;99.90;;;4.34;100.00;98706.50;10243684;28;97353;-85
2024/01/03 05:30:56;;;;;;;34.07;15.73;;;6.30;99.90;;;4.33;100.00;98700.41;10239720;28;98730;-84
2024/01/03 05:36:00;;;;;;;24.87;12.00;;;6.30;99.90;;;4.32;100.00;98709.28;10257678;28;97443;-84
2024/01/03 05:41:04;;;;;;;22.87;9.83;;;6.30;99.90;;;4.33;100.00;98726.72;10275685;28;98413;-84
2024/01/03 05:46:11;;;;;;;20.93;9.83;;;6.30;99.90;;;4.32;100.00;98703.19;10259964;28;96620;-84
2024/01/03 05:51:16;;;;;;;22.80;9.87;;;6.30;99.90;;;4.37;100.00;98704.34;10255270;28;97726;-85
2024/01/03 05:56:19;;;;;;;25.80;10.60;;;6.30;99.90;;;4.38;100.00;98727.03;10266502;28;96635;-85
2024/01/03 06:01:23;;;;;;;20.77;8.83;;;6.30;99.90;;;4.36;100.00;98730.81;10269016;28;96790;-85
2024/01/03 06:06:26;;;;;;;19.93;7.77;;;6.30;99.90;;;4.38;100.00;98739.34;10252896;28;96496;-83
2024/01/03 06:11:29;;;;;;;8.27;3.97;;;6.30;99.90;;;4.43;100.00;98729.97;10260056;28;97502;-84
2024/01/03 06:16:33;;;;;;;6.03;3.07;;;6.40;99.90;;;4.51;100.00;98737.88;10270121;28;96452;-84
2024/01/03 06:21:36;;;;;;;4.77;1.93;;;6.50;99.90;;;4.63;100.00;98717.34;10223295;28;97648;-84
2024/01/03 06:26:40;;;;;;;7.10;3.17;;;6.60;99.90;;;4.78;100.00;98728.00;10267067;28;96646;-84
2024/01/03 06:31:44;;;;;;;3.17;1.60;;;6.70;99.90;;;4.81;100.00;98743.47;10248572;28;96687;-84
2024/01/03 06:36:47;;;;;;;7.37;2.77;;;6.70;99.90;;;4.77;100.00;98736.88;10248006;28;96600;-84
2024/01/03 06:41:51;;;;;;;12.87;5.13;;;6.70;99.90;;;4.64;100.00;98737.38;10231582;28;96604;-84
2024/01/03 06:46:54;;;;;;;11.73;6.43;;;6.60;99.90;;;4.51;100.00;98748.41;10231997;28;97750;-84
2024/01/03 06:51:58;;;;;;;17.40;8.97;;;6.50;99.90;;;4.33;100.00;98737.22;10244493;28;96666;-84
2024/01/03 06:57:02;;;;;;;25.27;11.23;;;6.30;99.90;;;4.20;100.00;98742.97;10255220;28;98290;-84
2024/01/03 07:02:06;;;;;;;91.37;28.03;;;6.20;99.90;;;4.06;100.00;98767.25;10256235;28;96569;-84
2024/01/03 07:07:09;;;;;;;48.17;15.53;;;6.00;99.90;;;3.96;100.00;98750.81;10244659;28;96638;-84
2024/01/03 07:12:13;;;;;;;18.60;8.27;;;5.90;99.90;;;3.86;100.00;98750.13;10290622;28;96772;-84
2024/01/03 07:17:16;;;;;;;10.53;5.03;;;5.80;99.90;;;3.84;100.00;98747.66;10243554;28;96803;-84
2024/01/03 07:22:20;;;;;;;5.90;2.00;;;5.80;99.90;;;4.00;100.00;98739.81;10245477;28;98600;-85
2024/01/03 07:27:23;;;;;;;2.70;1.40;;;5.90;99.90;;;4.28;100.00;98740.34;10283924;28;96884;-84
2024/01/03 07:32:27;;;;;;;2.30;1.20;;;6.10;99.90;;;4.61;100.00;98739.50;10252015;28;97406;-85
2024/01/03 07:37:30;;;;;;;2.30;0.80;;;6.40;99.90;;;4.88;100.00;98747.06;10275581;28;97856;-85
2024/01/03 07:42:34;;;;;;;1.40;0.70;;;6.60;99.90;;;5.14;100.00;98715.25;10248587;28;96780;-85
2024/01/03 07:47:38;;;;;;;2.40;1.13;;;6.90;99.90;;;5.74;100.00;98724.38;10247515;28;96672;-85
2024/01/03 07:52:44;;;;;;;1.57;0.67;;;7.30;99.90;;;6.35;100.00;98742.00;10247853;28;96475;-85
2024/01/03 07:57:47;;;;;;;1.40;0.73;;;7.80;99.90;;;6.97;100.00;98748.91;10239002;28;96475;-85
2024/01/03 08:02:51;;;;;;;2.63;1.00;;;8.20;99.90;;;7.45;100.00;98738.81;10256085;28;98112;-85
2024/01/03 08:07:54;;;;;;;3.10;0.77;;;8.60;99.90;;;7.38;100.00;98744.03;10218679;28;96439;-85
2024/01/03 08:12:57;;;;;;;1.87;0.80;;;8.70;99.90;;;7.17;100.00;98751.84;10252075;28;97788;-85
2024/01/03 08:18:00;;;;;;;1.23;0.87;;;8.70;99.90;;;6.95;100.00;98742.97;10241859;28;98449;-85
2024/01/03 08:23:06;;;;;;;2.53;1.20;;;8.60;99.90;;;6.73;100.00;98749.13;10268305;28;96633;-85
2024/01/03 08:28:09;;;;;;;2.93;0.90;;;8.50;99.90;;;6.59;100.00;98756.00;10251713;28;96609;-85
2024/01/03 08:33:13;;;;;;;3.90;1.50;;;8.30;99.90;;;6.50;100.00;98765.81;10240199;28;100942;-85
2024/01/03 08:38:17;;;;;;;2.87;0.80;;;8.30;99.90;;;6.68;100.00;98774.25;10249739;28;96838;-85
2024/01/03 08:43:20;;;;;;;1.70;0.67;;;8.40;99.90;;;7.08;100.00;98766.16;10254053;28;96590;-85
2024/01/03 08:48:23;;;;;;;1.73;0.80;;;8.70;99.90;;;7.35;100.00;98781.38;10280461;28;96581;-85
2024/01/03 08:53:27;;;;;;;1.53;0.60;;;9.00;99.90;;;7.57;100.00;98786.75;10234596;28;97046;-85
2024/01/03 08:58:30;;;;;;;0.60;0.30;;;9.20;99.90;;;7.73;100.00;98797.94;10239546;28;98150;-85
2024/01/03 09:03:35;;;;;;;1.97;0.73;;;9.40;99.90;;;7.72;100.00;98798.94;10277088;28;97411;-85
2024/01/03 09:08:39;;;;;;;1.77;0.70;;;9.50;99.90;;;7.62;100.00;98809.00;10281101;28;96586;-85
2024/01/03 09:13:43;;;;;;;1.80;0.80;;;9.40;99.90;;;7.55;100.00;98813.34;10248297;28;96671;-85
2024/01/03 09:18:50;;;;;;;5.83;1.90;;;9.40;99.90;;;7.82;100.00;98803.97;10247058;28;96585;-85
2024/01/03 09:23:54;;;;;;;15.50;5.20;;;9.70;99.90;;;8.19;100.00;98810.09;10245757;28;96712;-85
2024/01/03 09:28:57;;;;;;;24.87;10.03;;;10.00;99.90;;;8.36;100.00;98808.09;10241852;28;96696;-85
2024/01/03 09:34:01;;;;;;;9.90;4.20;;;10.20;99.90;;;8.53;100.00;98793.59;10230258;28;96536;-85
2024/01/03 09:39:04;;;;;;;3.83;1.80;;;10.40;99.90;;;8.68;100.00;98799.63;10256340;28;96685;-85
2024/01/03 09:44:09;;;;;;;1.80;0.60;;;10.50;99.90;;;8.75;100.00;98795.22;10254259;28;96627;-85
2024/01/03 09:49:12;;;;;;;2.43;1.20;;;10.50;99.90;;;8.90;100.00;98799.63;10238705;28;96662;-84
2024/01/03 09:54:16;;;;;;;1.80;0.87;;;10.70;99.90;;;9.01;100.00;98792.00;10272857;28;97699;-85
2024/01/03 09:59:21;;;;;;;3.27;1.03;;;10.80;99.90;;;9.12;100.00;98806.56;10250774;28;96486;-84
2024/01/03 10:04:26;;;;;;;3.17;1.20;;;10.90;99.90;;;9.15;100.00;98800.84;10235543;28;97351;-85
2024/01/03 10:09:48;;;;;;;2.07;1.10;;;10.90;99.90;;;9.15;100.00;98798.19;10233820;28;96596;-86
2024/01/03 10:14:52;;;;;;;3.90;1.57;;;11.00;99.90;;;9.14;100.00;98791.28;10244607;28;97735;-84
2024/01/03 10:19:55;;;;;;;2.30;1.00;;;11.00;99.90;;;9.20;100.00;98806.41;10245020;28;98534;-84
2024/01/03 10:25:15;;;;;;;3.17;1.13;;;11.00;99.90;;;9.34;100.00;98802.81;10241434;28;98009;-84
2024/01/03 10:30:19;;;;;;;1.40;0.60;;;11.20;99.90;;;9.35;100.00;98793.03;10244997;28;96684;-84
2024/01/03 10:35:30;;;;;;;1.27;0.57;;;11.30;99.90;;;9.33;100.00;98787.13;10253923;28;96543;-84
2024/01/03 10:40:36;;;;;;;1.33;0.77;;;11.20;99.90;;;9.43;100.00;98787.59;10259365;28;96560;-84
2024/01/03 10:45:40;;;;;;;1.17;0.53;;;11.20;99.90;;;9.56;100.00;98786.84;10246654;28;96615;-84
2024/01/03 10:50:45;;;;;;;1.67;1.00;;;11.40;99.90;;;9.69;100.00;98789.56;10268163;28;96880;-84
2024/01/03 10:55:56;;;;;;;2.33;1.00;;;11.50;99.90;;;9.98;100.00;98769.09;10246876;28;97994;-84
2024/01/03 11:01:25;;;;;;;7.80;1.17;;;11.90;99.90;;;10.40;96.30;98752.88;10254642;28;96699;-84
2024/01/03 11:06:46;;;;;;;209.03;27.43;;;12.30;99.90;;;10.63;94.34;98752.50;10232162;28;97694;-84
2024/01/03 11:12:04;;;;;;;6.40;1.17;;;12.60;99.90;;;10.68;88.87;98751.91;10251019;28;97189;-85
2024/01/03 11:17:12;;;;;;;2.57;1.33;;;12.60;99.90;;;10.65;88.90;98760.28;10245021;28;98506;-84
2024/01/03 11:22:16;;;;;;;5.23;2.40;;;12.60;99.90;;;10.57;91.72;98741.88;10241013;28;96615;-84
2024/01/03 11:27:21;;;;;;;3.63;1.37;;;12.60;99.90;;;10.54;92.76;98758.22;10248099;28;98411;-84
2024/01/03 11:32:31;;;;;;;3.47;1.57;;;12.50;99.90;;;10.46;96.10;98735.34;10262945;28;97240;-84
2024/01/03 11:37:40;;;;;;;2.80;1.30;;;12.50;99.90;;;10.42;92.54;98729.59;10246191;28;98008;-84
2024/01/03 11:42:44;;;;;;;1.50;0.70;;;12.40;99.90;;;10.44;94.22;98737.38;10244158;28;97145;-84
2024/01/03 11:47:52;;;;;;;2.33;0.90;;;12.40;99.90;;;10.41;94.52;98722.66;10276074;28;97340;-84
2024/01/03 11:52:56;;;;;;;2.70;0.77;;;12.40;99.90;;;10.34;93.75;98719.19;10251184;28;96519;-84
2024/01/03 11:58:03;;;;;;;2.50;1.10;;;12.30;99.90;;;10.33;93.00;98724.69;10246409;28;97510;-85
2024/01/03 12:03:07;;;;;;;2.87;1.00;;;12.30;99.90;;;10.39;91.91;98714.09;10249656;28;96581;-84
2024/01/03 12:08:13;;;;;;;2.47;1.03;;;12.40;99.90;;;10.43;93.97;98715.31;10245125;28;97289;-84
2024/01/03 12:13:16;;;;;;;2.23;1.10;;;12.40;99.90;;;10.48;94.47;98713.88;10276355;28;97009;-84
2024/01/03 12:18:22;;;;;;;2.33;0.70;;;12.40;99.90;;;10.54;91.71;98726.34;10244250;28;97902;-84
2024/01/03 12:23:28;;;;;;;5.07;2.27;;;12.50;99.90;;;10.57;94.93;98732.06;10254661;28;97800;-84
2024/01/03 12:28:31;;;;;;;3.10;1.57;;;12.60;99.90;;;10.58;94.30;98723.09;10246817;28;96568;-84
2024/01/03 12:33:35;;;;;;;6.47;2.77;;;12.60;99.90;;;10.58;95.24;98722.25;10248667;28;98179;-84
2024/01/03 12:38:40;;;;;;;4.37;2.40;;;12.50;99.90;;;10.55;94.64;98709.38;10248539;28;96895;-84
2024/01/03 12:43:43;;;;;;;11.63;3.83;;;12.50;99.90;;;10.56;93.88;98716.34;10225415;28;96605;-84
2024/01/03 12:48:47;;;;;;;2.57;1.40;;;12.50;99.90;;;10.54;94.47;98710.41;10250115;28;96601;-84
2024/01/03 12:53:50;;;;;;;3.50;1.40;;;12.50;99.90;;;10.54;90.67;98705.91;10245342;28;97022;-84
2024/01/03 12:58:54;;;;;;;9.53;2.93;;;12.50;99.90;;;10.56;87.65;98713.69;10249141;28;96602;-84
2024/01/03 13:03:58;;;;;;;2.63;1.33;;;12.50;99.90;;;10.61;88.46;98717.34;10232507;28;98014;-84
2024/01/03 13:09:04;;;;;;;5.40;1.83;;;12.50;99.90;;;10.66;87.67;98720.22;10243458;28;97255;-84
2024/01/03 13:14:07;;;;;;;3.97;1.93;;;12.60;99.90;;;10.72;87.47;98731.88;10238813;28;96610;-84
2024/01/03 13:19:12;;;;;;;2.97;1.33;;;12.60;99.90;;;10.80;88.80;98725.56;10248636;28;96599;-84
2024/01/03 13:24:15;;;;;;;2.93;0.93;;;12.70;99.90;;;10.90;86.98;98716.13;10243387;28;98196;-84
2024/01/03 13:29:19;;;;;;;2.50;1.00;;;12.80;99.90;;;10.96;86.78;98709.97;10241572;28;96998;-84
2024/01/03 13:34:22;;;;;;;2.70;1.40;;;12.90;99.90;;;10.98;83.95;98709.78;10243693;28;97966;-84
2024/01/03 13:39:28;;;;;;;3.27;1.10;;;12.90;99.90;;;10.97;82.16;98716.09;10247187;28;98664;-84
2024/01/03 13:44:32;;;;;;;1.73;0.60;;;12.80;99.90;;;10.89;80.66;98703.84;10243834;28;96654;-83
2024/01/03 13:49:35;;;;;;;1.83;0.83;;;12.80;99.90;;;10.90;81.75;98716.13;10232374;28;98319;-84
2024/01/03 13:54:39;;;;;;;4.27;1.53;;;12.80;99.90;;;10.87;83.55;98719.19;10246707;28;96539;-83
2024/01/03 13:59:43;;;;;;;5.83;2.00;;;12.70;99.90;;;10.84;82.96;98724.09;10259170;28;98582;-84
2024/01/03 14:04:47;;;;;;;1.70;0.90;;;12.70;99.90;;;10.80;82.14;98725.56;10239004;28;97971;-83
2024/01/03 14:09:50;;;;;;;1.73;0.97;;;12.70;99.90;;;10.80;82.21;98730.88;10252324;28;97758;-84
2024/01/03 14:14:54;;;;;;;2.70;1.10;;;12.60;99.90;;;10.70;83.69;98728.59;10252288;28;97180;-83
2024/01/03 14:19:59;;;;;;;4.90;1.93;;;12.60;99.90;;;10.62;85.12;98734.94;10236669;28;96628;-83
2024/01/03 14:25:02;;;;;;;3.83;1.30;;;12.50;99.90;;;10.58;84.69;98743.50;10223042;28;96997;-83
2024/01/03 14:30:12;;;;;;;2.57;1.40;;;12.50;99.90;;;10.58;84.42;98744.31;10248900;28;96614;-83
2024/01/03 14:35:16;;;;;;;4.13;2.23;;;12.40;99.90;;;10.49;86.76;98739.41;10246781;28;97922;-82
2024/01/03 14:40:23;;;;;;;11.83;4.53;;;12.40;99.90;;;10.37;86.00;98733.88;10248711;28;96530;-82
2024/01/03 14:45:26;;;;;;;141.17;60.27;;;12.30;99.90;;;10.38;84.99;98732.88;10268061;28;97539;-82
2024/01/03 14:50:30;;;;;;;5.43;3.30;;;12.30;99.90;;;10.33;84.58;98735.31;10248474;28;97787;-83
2024/01/03 14:55:33;;;;;;;3.40;1.70;;;12.30;99.90;;;10.23;87.24;98735.69;10230310;28;98638;-82
2024/01/03 15:00:37;;;;;;;3.70;1.40;;;12.20;99.90;;;10.11;86.92;98739.94;10260829;28;98458;-82
2024/01/03 15:05:42;;;;;;;8.83;4.10;;;12.10;99.90;;;9.97;90.74;98741.72;10245724;28;97405;-82
2024/01/03 15:10:47;;;;;;;16.87;7.67;;;12.00;99.90;;;10.01;83.36;98744.78;10244825;28;97132;-83
2024/01/03 15:15:50;;;;;;;7.27;3.70;;;11.90;99.90;;;9.88;87.93;98740.25;10248801;28;96990;-82
2024/01/03 15:20:54;;;;;;;4.23;2.00;;;11.90;99.90;;;9.77;88.39;98751.44;10254040;28;96481;-83
2024/01/03 15:25:58;;;;;;;4.27;1.93;;;11.70;99.90;;;9.64;89.42;98749.53;10236884;28;97468;-83
2024/01/03 15:31:01;;;;;;;22.60;8.67;;;11.60;99.90;;;9.44;92.49;98741.50;10249373;28;97013;-82
2024/01/03 15:36:05;;;;;;;21.20;7.63;;;11.50;99.90;;;9.26;94.01;98742.00;10248584;28;96742;-82
2024/01/03 15:41:16;;;;;;;15.53;6.50;;;11.30;99.90;;;9.04;96.36;98743.06;10249413;28;98141;-83
2024/01/03 15:46:19;;;;;;;11.50;4.90;;;11.10;99.90;;;8.85;98.33;98736.63;10252275;28;96462;-83
2024/01/03 15:51:23;;;;;;;13.17;6.30;;;10.90;99.90;;;8.74;97.72;98751.22;10252140;28;96485;-83
2024/01/03 15:56:26;;;;;;;14.73;7.13;;;10.70;99.90;;;8.62;99.37;98747.44;10254772;28;96548;-83
2024/01/03 16:01:29;;;;;;;16.53;7.90;;;10.60;99.90;;;8.59;98.19;98747.84;10251954;28;96418;-82
2024/01/03 16:06:33;;;;;;;13.80;6.13;;;10.50;99.90;;;8.42;99.50;98738.50;10253683;28;96479;-82
2024/01/03 16:11:38;;;;;;;15.10;6.77;;;10.40;99.90;;;8.17;100.00;98741.50;10239345;28;96526;-83
2024/01/03 16:16:42;;;;;;;14.10;6.80;;;10.20;99.90;;;7.94;100.00;98738.19;10242449;28;98020;-82
2024/01/03 16:21:46;;;;;;;10.90;4.73;;;10.00;99.90;;;7.81;100.00;98733.56;10234869;28;98059;-82
2024/01/03 16:27:04;;;;;;;8.17;3.87;;;9.90;99.90;;;7.73;100.00;98717.78;10243257;28;96872;-82
2024/01/03 16:32:10;;;;;;;6.33;3.93;;;9.80;99.90;;;7.64;100.00;98727.66;10247446;28;98398;-82
2024/01/03 16:37:14;;;;;;;62.57;32.73;;;9.70;99.90;;;7.43;100.00;98735.50;10242559;28;97947;-82
2024/01/03 16:42:18;;;;;;;60.37;24.87;;;9.50;99.90;;;7.23;100.00;98736.06;10246394;28;98187;-82
2024/01/03 16:47:21;;;;;;;52.93;19.60;;;9.30;99.90;;;7.06;100.00;98741.72;10236004;28;96742;-82
2024/01/03 16:52:25;;;;;;;20.57;10.10;;;9.10;99.90;;;6.90;100.00;98737.44;10248873;28;98028;-82
2024/01/03 16:57:28;;;;;;;26.40;11.83;;;8.90;99.90;;;6.90;100.00;98740.06;10244699;28;98182;-82
2024/01/03 17:02:32;;;;;;;50.00;19.47;;;8.90;99.90;;;6.90;100.00;98735.59;10235919;28;96628;-82
2024/01/03 17:07:35;;;;;;;50.37;21.70;;;8.90;99.90;;;6.83;100.00;98745.22;10251597;28;96688;-82
2024/01/03 17:12:40;;;;;;;17.73;8.37;;;8.80;99.90;;;6.73;100.00;98741.22;10249792;28;99625;-82
2024/01/03 17:17:43;;;;;;;6.90;2.77;;;8.70;99.90;;;7.34;100.00;98758.59;10247083;28;96584;-82
2024/01/03 17:22:47;;;;;;;3.33;1.70;;;9.00;99.90;;;7.92;100.00;98729.63;10259750;28;97078;-82
2024/01/03 17:27:51;;;;;;;4.27;2.30;;;9.60;99.90;;;8.23;100.00;98722.22;10226336;28;97943;-82
2024/01/03 17:32:54;;;;;;;5.13;2.20;;;10.00;99.90;;;8.48;100.00;98741.22;10249431;28;96909;-83
2024/01/03 17:37:57;;;;;;;1.70;0.90;;;10.30;99.90;;;8.93;100.00;98775.41;10248751;28;96510;-83
2024/01/03 17:43:01;;;;;;;3.43;1.77;;;10.60;99.90;;;9.18;100.00;98773.16;10250042;28;97212;-83
2024/01/03 17:48:05;;;;;;;4.83;1.40;;;11.00;99.90;;;9.22;100.00;98755.84;10251488;28;96612;-83
2024/01/03 17:53:09;;;;;;;2.30;1.50;;;11.00;99.90;;;9.20;100.00;98742.78;10226882;28;96591;-83
2024/01/03 17:58:12;;;;;;;5.60;1.30;;;11.00;99.90;;;9.22;100.00;98743.41;10239765;28;96546;-83
2024/01/03 18:03:16;;;;;;;2.70;1.37;;;11.00;99.90;;;9.45;100.00;98711.31;10227893;28;98026;-83
2024/01/03 18:08:19;;;;;;;4.23;1.97;;;11.20;99.90;;;9.51;100.00;98710.53;10247950;28;96539;-82
2024/01/03 18:13:23;;;;;;;3.53;1.43;;;11.30;99.90;;;9.52;100.00;98714.00;10267808;28;96646;-83
2024/01/03 18:18:27;;;;;;;5.10;3.00;;;11.30;99.90;;;9.46;100.00;98723.56;10237120;28;97284;-83
2024/01/03 18:23:32;;;;;;;3.20;1.63;;;11.20;99.90;;;9.35;100.00;98719.63;10268473;28;96726;-82
2024/01/03 18:28:38;;;;;;;2.10;1.10;;;11.20;99.90;;;9.25;100.00;98713.88;10257793;28;96507;-83
2024/01/03 18:33:42;;;;;;;1.90;1.20;;;11.10;99.90;;;9.31;100.00;98722.88;10226215;28;96530;-82
2024/01/03 18:38:46;;;;;;;3.73;1.50;;;11.10;99.90;;;9.34;100.00;98728.59;10257317;28;96427;-83
2024/01/03 18:43:49;;;;;;;5.60;2.43;;;11.10;99.90;;;9.26;100.00;98741.19;10289842;28;96344;-83
2024/01/03 18:48:53;;;;;;;5.77;2.40;;;11.10;99.90;;;9.23;100.00;98737.09;10291329;28;96603;-82
2024/01/03 18:53:57;;;;;;;4.77;2.10;;;11.10;99.90;;;9.23;100.00;98726.47;10266484;28;96499;-83
2024/01/03 18:59:00;;;;;;;3.07;1.67;;;11.10;99.90;;;9.40;100.00;98732.28;10256329;28;97220;-83
2024/01/03 19:04:06;;;;;;;4.60;2.10;;;11.20;99.90;;;9.34;100.00;98710.03;10270181;28;96637;-83
2024/01/03 19:09:12;;;;;;;7.17;2.87;;;11.20;99.90;;;9.28;100.00;98710.00;10255313;28;96425;-83
2024/01/03 19:14:16;;;;;;;4.13;1.83;;;11.10;99.90;;;9.17;100.00;98706.06;10255549;28;96567;-83
2024/01/03 19:19:19;;;;;;;3.37;1.93;;;11.00;99.90;;;9.01;100.00;98709.84;10263843;28;96433;-83
2024/01/03 19:24:23;;;;;;;5.60;2.23;;;10.90;99.90;;;8.89;100.00;98724.66;10252900;28;96591;-83
2024/01/03 19:29:26;;;;;;;3.57;2.07;;;10.80;99.90;;;8.80;100.00;98710.72;10254304;28;96464;-83
2024/01/03 19:34:30;;;;;;;5.37;2.50;;;10.70;99.90;;;8.72;100.00;98737.34;10257915;28;96475;-83
2024/01/03 19:39:34;;;;;;;3.43;2.00;;;10.60;99.90;;;8.70;100.00;98739.38;10269939;28;97157;-83
2024/01/03 19:44:37;;;;;;;3.67;1.80;;;10.60;99.90;;;8.71;100.00;98753.44;10254211;28;96667;-83
2024/01/03 19:49:42;;;;;;;2.63;1.47;;;10.50;99.90;;;8.89;100.00;98726.47;10253704;28;96488;-83
2024/01/03 19:54:45;;;;;;;3.20;1.53;;;10.60;99.90;;;8.91;100.00;98697.94;10284709;28;97901;-83
2024/01/03 19:59:49;;;;;;;5.73;2.73;;;10.70;99.90;;;8.85;100.00;98676.53;10284718;28;96444;-83
2024/01/03 20:04:53;;;;;;;5.00;1.90;;;10.70;99.90;;;8.79;100.00;98689.72;10254414;28;96585;-83
2024/01/03 20:09:56;;;;;;;7.43;3.27;;;10.60;99.90;;;8.65;100.00;98672.94;10284442;28;96649;-82
2024/01/03 20:15:01;;;;;;;16.33;6.87;;;10.50;99.90;;;8.50;100.00;98685.41;10252017;28;96728;-83
2024/01/03 20:20:05;;;;;;;8.27;3.57;;;10.40;99.90;;;8.33;100.00;98690.94;10249356;28;96675;-83
2024/01/03 20:25:09;;;;;;;4.47;2.30;;;10.30;99.90;;;8.24;100.00;98675.41;10242063;28;96748;-83
2024/01/03 20:30:13;;;;;;;2.40;1.40;;;10.10;99.90;;;8.18;100.00;98676.97;10236475;28;97261;-83
2024/01/03 20:35:17;;;;;;;2.20;1.13;;;10.10;99.90;;;8.19;100.00;98665.38;10282568;28;97960;-82
2024/01/03 20:40:21;;;;;;;2.13;1.10;;;10.00;99.90;;;8.17;100.00;98663.94;10257846;28;96521;-80
2024/01/03 20:45:24;;;;;;;2.13;1.10;;;10.00;99.90;;;8.24;100.00;98676.22;10273678;28;96610;-82
2024/01/03 20:50:31;;;;;;;3.30;1.53;;;10.10;99.90;;;8.27;100.00;98669.72;10256389;28;96554;-83
2024/01/03 20:55:35;;;;;;;9.67;1.40;;;10.10;99.90;;;8.39;100.00;98654.16;10252205;28;96597;-83
2024/01/03 21:00:38;;;;;;;5.03;1.30;;;10.20;99.90;;;8.37;100.00;98650.91;10261698;28;96559;-82
2024/01/03 21:05:43;;;;;;;4.53;1.60;;;10.30;99.90;;;8.36;100.00;98633.41;10261092;28;96479;-83